Karratha Legendre Isalnd, Australia
Current Conditions -  °F | °C
As of 3:30 PM on Friday 31 Oct 2014 (Local Time) from YPPD Reporting Station
Clear Clear  
Wind Chill: 95°   Ceiling: Unl
Heat Index: 95°   Visibility: 6mi
Dew Point: 52°   Wind: 23mph
Humidity: 23%   Direction: 300°WNW
Pressure: 29.71"   Gusts: NA
Location:  20.37°S, 116.85°E
Report Text: YPPD 310730Z AUTO 30020KT 9999 // NCD 35/11 Q1006
Loading
Personal Weather Stations






























Interactive Weather Map
Tropical Storm Tracking
New forecast layout! Learn more

10-Day Weather Forecast

Advertisements
Track Severe Weather on mobile